Terminal Aerodrome Forecast
Issued by NWS Charleston, WV

Current Version | Previous Version | Graphics & Text | Print | Product List | Glossary On
Versions: 1 2 3 4 5 6 7 8 9 10 11 12 13 14 15 16 17 18 19 20 21 22 23 24 25
000
FTUS41 KRLX 280258 AAC
TAFHTS
TAF AMD
KHTS 280258Z 2803/2824 26008KT P6SM FEW250
     FM280700 00000KT 2SM BR FEW250
     FM280800 00000KT 1/2SM FG SKC
     FM281100 00000KT 1 1/2SM BR FEW250
     FM281200 00000KT P6SM SCT040=

USA.gov is the U.S. government's official web portal to all federal, state and local government web resources and services.